Pagrindinis puslapis
METAR-TAF:

METAR-TAF

Oro uostai :

Oro pajėgų bazė

Linšiopingas, Švedija

platuma: 58-24N, ilguma: 015-31E, Aukštis: 93 m

Dabartinis oras

Ataskaita buvo paskelbta 38 minutes, ne 10:50 UTC
Vėjas 4 kt iš Šiaurės
Temperatūra -5°C
Drėgmė 100%
Slėgis 1006 hPa
Matomumas: 0600 m
įšaldymas rūko

METAR: ESCF 071050Z 01004KT 0600 R01/P2000N R19/1400VP2000D FZFG VV002 M05/M05 Q1006

Laikas: 12:28 (11:28 UTC)

Prognozė

Ataskaita buvo paskelbta 48 minutes, ne 10:40 UTC
Prognozė galioja nuo 07 metu 10 UTC su 07 metu 18 UTC
Vėjas 5 kt iš Šiaurės/Šiaurės Vakarų
Matomumas 10 km arba daugiau
nėra debesų žemiau 1500 m ir nėra kamuolinių lietaus debesų
Tikimybė 40%
nuo 07 metu 10 UTC su 07 metu 13 UTC
Matomumas: 0600 m
ne aukštis 200 ft
įšaldymas rūko

TAF: ESCF 071040Z 0710/0718 34005KT CAVOK PROB40 0710/0713 0600 FZFG VV002 RMK MIL

Orai ataskaitas ir orų prognozės (METAR, TAF).

turimą stotys yra geltonos ir raudonos taškus žemėlapyje.

Perkelti pele per norėdami pamatyti stoties vardą.

Tada spustelėkite, norėdami matyti oro stebėjimo ir prognozės.

Norėdami pakeisti žemėlapį: spustelėkite ant žalios mygtukų su juodo kryžiaus žemyn,; žalią mygtuką su brūkšneliu, jei norite nutolinti; arba žalių rodyklių gretimoms žemėlapius.


METAR-TAF: